createdAt,value
2023-04-10T00:01:50.601Z,17.88
2023-04-10T00:04:18.080Z,17.92
2023-04-10T00:06:45.339Z,18.03
2023-04-10T00:09:15.491Z,17.85
2023-04-10T00:11:43.117Z,18.01
2023-04-10T00:14:10.281Z,17.65
2023-04-10T00:16:38.182Z,17.89
2023-04-10T00:19:05.458Z,18.07
2023-04-10T00:21:32.265Z,17.89
2023-04-10T00:24:08.685Z,18.06
2023-04-10T00:26:37.962Z,17.72
2023-04-10T00:29:05.389Z,17.63
2023-04-10T00:31:32.908Z,17.67
2023-04-10T00:34:00.252Z,17.99
2023-04-10T00:36:27.877Z,18.02
2023-04-10T00:38:55.284Z,17.91
2023-04-10T00:41:22.921Z,17.92
2023-04-10T00:43:56.084Z,17.99
2023-04-10T00:46:23.606Z,18.02
2023-04-10T00:48:51.349Z,18.13
2023-04-10T00:51:20.276Z,17.84
2023-04-10T00:53:48.422Z,17.49
2023-04-10T00:56:16.144Z,17.47
2023-04-10T00:58:43.668Z,17.60
2023-04-10T01:01:13.102Z,17.53
2023-04-10T01:03:42.936Z,17.97
2023-04-10T01:06:20.004Z,17.60
2023-04-10T01:08:57.694Z,17.79
2023-04-10T01:11:36.374Z,17.81
2023-04-10T01:14:12.842Z,17.75
2023-04-10T01:16:50.047Z,17.75
2023-04-10T01:19:26.549Z,17.75
2023-04-10T01:21:56.825Z,17.90
2023-04-10T01:24:37.937Z,17.76
2023-04-10T01:27:12.746Z,17.82
2023-04-10T01:29:47.026Z,17.97
2023-04-10T01:32:17.321Z,17.72
2023-04-10T01:34:47.458Z,17.79
2023-04-10T01:37:17.617Z,17.48
2023-04-10T01:39:50.518Z,17.43
2023-04-10T01:42:20.391Z,17.53
2023-04-10T01:44:52.789Z,17.36
2023-04-10T01:47:20.839Z,17.23
2023-04-10T01:49:49.412Z,16.99
2023-04-10T01:52:18.626Z,16.93
2023-04-10T01:54:47.430Z,16.73
2023-04-10T01:57:16.056Z,16.93
2023-04-10T01:59:43.913Z,17.03
2023-04-10T02:02:13.356Z,17.02
2023-04-10T02:04:41.452Z,17.26
2023-04-10T02:07:17.147Z,17.18
2023-04-10T02:09:52.029Z,17.38
2023-04-10T02:12:24.117Z,17.29
2023-04-10T02:14:56.721Z,17.03
2023-04-10T02:17:30.263Z,17.25
2023-04-10T02:19:59.595Z,17.18
2023-04-10T02:22:27.789Z,17.13
2023-04-10T02:24:55.701Z,16.86
2023-04-10T02:27:30.613Z,17.13
2023-04-10T02:29:59.158Z,17.23
2023-04-10T02:32:28.484Z,16.96
2023-04-10T02:34:56.105Z,16.97
2023-04-10T02:37:23.830Z,16.94
2023-04-10T02:39:50.888Z,17.07
2023-04-10T02:42:18.960Z,17.02
2023-04-10T02:44:47.540Z,17.02
2023-04-10T02:47:16.581Z,17.08
2023-04-10T02:49:46.005Z,17.23
2023-04-10T02:52:13.875Z,17.17
2023-04-10T02:54:41.504Z,17.13
2023-04-10T02:57:09.236Z,17.22
2023-04-10T02:59:37.100Z,17.27
2023-04-10T03:02:04.522Z,17.07
2023-04-10T03:04:34.539Z,17.22
2023-04-10T03:07:03.837Z,17.20
2023-04-10T03:09:31.469Z,17.16
2023-04-10T03:11:58.722Z,17.26
2023-04-10T03:14:26.580Z,17.33
2023-04-10T03:16:53.867Z,17.42
2023-04-10T03:19:21.179Z,17.57
2023-04-10T03:21:49.015Z,17.31
2023-04-10T03:24:17.998Z,17.55
2023-04-10T03:26:46.392Z,17.61
2023-04-10T03:29:13.730Z,17.53
2023-04-10T03:31:41.292Z,17.67
2023-04-10T03:34:08.642Z,17.68
2023-04-10T03:36:36.263Z,17.65
2023-04-10T03:39:03.617Z,17.37
2023-04-10T03:41:32.378Z,17.42
2023-04-10T03:44:01.191Z,17.52
2023-04-10T03:46:28.609Z,17.78
2023-04-10T03:48:55.916Z,17.59
2023-04-10T03:51:24.320Z,17.73
2023-04-10T03:53:51.847Z,17.73
2023-04-10T03:56:20.220Z,17.76
2023-04-10T03:58:49.595Z,17.29
2023-04-10T04:01:18.674Z,17.58
2023-04-10T04:03:46.239Z,17.68
2023-04-10T04:06:13.698Z,17.69
2023-04-10T04:08:41.303Z,17.90
2023-04-10T04:11:09.271Z,17.71
2023-04-10T04:13:37.208Z,17.88
2023-04-10T04:16:08.753Z,17.86
2023-04-10T04:18:36.207Z,17.93
2023-04-10T04:21:04.033Z,17.90
2023-04-10T04:23:31.466Z,17.90
2023-04-10T04:25:58.923Z,17.62
2023-04-10T04:28:27.061Z,17.69
2023-04-10T04:30:55.549Z,17.68
2023-04-10T04:33:24.662Z,17.84
2023-04-10T04:35:52.638Z,17.76
2023-04-10T04:38:20.509Z,17.79
2023-04-10T04:40:47.768Z,17.81
2023-04-10T04:43:15.384Z,17.88
2023-04-10T04:45:42.985Z,18.01
2023-04-10T04:48:10.683Z,17.85
2023-04-10T04:50:40.438Z,18.00
2023-04-10T04:53:08.365Z,17.97
2023-04-10T04:55:35.906Z,17.88
2023-04-10T04:58:05.134Z,17.94
2023-04-10T05:00:32.578Z,18.01
2023-04-10T05:03:00.350Z,18.00
2023-04-10T05:05:28.800Z,17.96
2023-04-10T05:07:58.130Z,17.94
2023-04-10T05:10:25.474Z,17.95
2023-04-10T05:12:53.014Z,17.85
2023-04-10T05:15:20.510Z,17.80
2023-04-10T05:17:48.071Z,17.76
2023-04-10T05:20:15.842Z,17.72
2023-04-10T05:22:43.457Z,17.81
2023-04-10T05:25:15.065Z,17.79
2023-04-10T05:27:42.483Z,17.88
2023-04-10T05:30:11.212Z,17.82
2023-04-10T05:32:40.839Z,17.90
2023-04-10T05:35:09.351Z,17.81
2023-04-10T05:37:36.978Z,17.97
2023-04-10T05:40:05.058Z,17.85
2023-04-10T05:42:34.552Z,17.89
2023-04-10T05:45:03.108Z,18.05
2023-04-10T05:47:31.179Z,18.04
2023-04-10T05:49:58.209Z,18.05
2023-04-10T05:52:26.369Z,18.09
2023-04-10T05:54:53.823Z,18.02
2023-04-10T05:57:21.193Z,17.77
2023-04-10T05:59:50.731Z,18.00
2023-04-10T06:02:18.611Z,17.90
2023-04-10T06:04:47.139Z,17.87
2023-04-10T06:07:15.941Z,17.97
2023-04-10T06:09:43.289Z,17.98
2023-04-10T06:12:11.252Z,18.22
2023-04-10T06:14:39.668Z,18.22
2023-04-10T06:17:08.377Z,18.23
2023-04-10T06:19:36.236Z,18.04
2023-04-10T06:22:04.029Z,18.28
2023-04-10T06:24:30.830Z,18.37
2023-04-10T06:26:59.429Z,18.42
2023-04-10T06:29:26.893Z,18.31
2023-04-10T06:32:00.405Z,18.37
2023-04-10T06:34:29.103Z,18.41
2023-04-10T06:36:56.519Z,18.17
2023-04-10T06:39:23.650Z,18.35
2023-04-10T06:41:52.748Z,18.45
2023-04-10T06:44:20.855Z,18.47
2023-04-10T06:46:48.665Z,18.59
2023-04-10T06:49:16.327Z,18.61
2023-04-10T06:51:45.631Z,18.68
2023-04-10T06:54:14.665Z,18.55
2023-04-10T06:56:42.281Z,18.62
2023-04-10T06:59:10.149Z,18.61
2023-04-10T07:01:38.232Z,18.55
2023-04-10T07:04:05.851Z,18.51
2023-04-10T07:06:33.200Z,18.67
2023-04-10T07:09:03.921Z,18.79
2023-04-10T07:11:31.820Z,18.63
2023-04-10T07:13:59.472Z,18.75
2023-04-10T07:16:27.522Z,18.71
2023-04-10T07:18:55.324Z,18.92
2023-04-10T07:21:23.205Z,18.99
2023-04-10T07:23:50.851Z,18.95
2023-04-10T07:26:20.058Z,19.22
2023-04-10T07:28:47.576Z,19.37
2023-04-10T07:31:15.215Z,19.31
2023-04-10T07:33:42.812Z,19.56
2023-04-10T07:36:11.900Z,19.55
2023-04-10T07:38:40.022Z,19.51
2023-04-10T07:41:07.637Z,19.76
2023-04-10T07:43:38.022Z,19.48
2023-04-10T07:46:06.180Z,19.60
2023-04-10T07:48:33.562Z,19.60
2023-04-10T07:51:00.965Z,19.56
2023-04-10T07:53:28.694Z,19.86
2023-04-10T07:55:56.244Z,20.48
2023-04-10T07:58:24.375Z,21.07
2023-04-10T08:00:54.180Z,21.26
2023-04-10T08:05:49.179Z,20.96
2023-04-10T08:08:16.546Z,20.74
2023-04-10T08:10:44.796Z,20.59
2023-04-10T08:13:12.820Z,20.94
2023-04-10T08:15:39.958Z,21.76
2023-04-10T08:18:12.154Z,21.53
2023-04-10T08:20:40.073Z,21.16
2023-04-10T08:23:19.920Z,20.62
2023-04-10T08:25:48.596Z,20.77
2023-04-10T08:28:16.201Z,20.65
2023-04-10T08:30:43.834Z,20.63
2023-04-10T08:33:14.672Z,20.56
2023-04-10T08:35:42.269Z,20.58
2023-04-10T08:38:14.213Z,20.41
2023-04-10T08:40:42.535Z,20.33
2023-04-10T08:43:11.982Z,20.66
2023-04-10T08:45:41.435Z,20.70
2023-04-10T08:48:11.157Z,20.63
2023-04-10T08:50:43.857Z,20.73
2023-04-10T08:53:13.697Z,20.58
2023-04-10T08:55:41.545Z,20.51
2023-04-10T08:58:11.562Z,20.37
2023-04-10T09:00:40.613Z,20.51
2023-04-10T09:03:11.147Z,20.93
2023-04-10T09:05:41.253Z,21.04
2023-04-10T09:08:09.823Z,21.92
2023-04-10T09:10:37.083Z,22.91
2023-04-10T09:13:04.973Z,23.82
2023-04-10T09:15:59.297Z,24.47
2023-04-10T09:18:41.779Z,25.00
2023-04-10T09:21:12.005Z,24.91
2023-04-10T09:23:39.293Z,25.45
2023-04-10T09:26:23.489Z,25.92
2023-04-10T09:28:57.331Z,24.55
2023-04-10T09:31:30.622Z,23.84
2023-04-10T09:34:12.573Z,22.94
2023-04-10T09:36:41.800Z,22.51
2023-04-10T09:39:09.738Z,21.84
2023-04-10T09:41:48.643Z,20.28
2023-04-10T09:44:18.557Z,19.64
2023-04-10T09:46:45.489Z,18.60
2023-04-10T09:49:12.389Z,18.65
2023-04-10T09:51:40.865Z,18.02
2023-04-10T09:54:08.012Z,17.17
2023-04-10T09:56:39.053Z,17.21
2023-04-10T09:59:07.477Z,17.57
2023-04-10T10:01:34.649Z,17.62
2023-04-10T10:04:03.421Z,16.80
2023-04-10T10:06:31.811Z,16.59
2023-04-10T10:09:04.555Z,16.30
2023-04-10T10:11:33.765Z,16.57
2023-04-10T10:14:03.988Z,16.88
2023-04-10T10:16:35.293Z,16.91
2023-04-10T10:19:09.176Z,17.51
2023-04-10T10:21:36.920Z,17.71
2023-04-10T10:24:08.665Z,17.95
2023-04-10T10:26:39.337Z,18.77
2023-04-10T10:29:08.249Z,19.32
2023-04-10T10:31:37.451Z,19.75
2023-04-10T10:34:05.713Z,20.31
2023-04-10T10:36:33.305Z,20.29
2023-04-10T10:39:21.796Z,20.08
2023-04-10T10:41:59.588Z,20.06
2023-04-10T10:44:34.517Z,19.80
2023-04-10T10:47:08.135Z,19.72
2023-04-10T10:50:02.908Z,19.84
2023-04-10T10:52:43.663Z,20.11
2023-04-10T10:55:32.943Z,20.12
2023-04-10T10:58:02.777Z,19.98
2023-04-10T11:01:07.811Z,19.92
2023-04-10T11:03:36.872Z,18.90
2023-04-10T11:06:06.443Z,18.89
2023-04-10T11:08:41.967Z,18.70
2023-04-10T11:11:09.884Z,19.05
2023-04-10T11:13:39.376Z,19.05
2023-04-10T11:16:08.256Z,19.40
2023-04-10T11:19:14.077Z,19.20
2023-04-10T11:22:09.358Z,18.60
2023-04-10T11:24:59.730Z,17.77
2023-04-10T11:27:46.859Z,17.55
2023-04-10T11:30:29.190Z,17.45
2023-04-10T11:32:56.813Z,17.79
2023-04-10T11:35:24.181Z,18.27
2023-04-10T11:37:51.310Z,18.52
2023-04-10T11:40:18.186Z,18.60
2023-04-10T11:42:44.966Z,18.19
2023-04-10T11:45:28.437Z,17.20
2023-04-10T11:47:55.540Z,16.88
2023-04-10T11:50:22.349Z,17.39
2023-04-10T11:52:50.913Z,17.49
2023-04-10T11:55:17.994Z,16.92
2023-04-10T11:57:46.351Z,17.36
2023-04-10T12:00:23.400Z,17.66
2023-04-10T12:02:53.023Z,17.00
2023-04-10T12:05:20.311Z,17.51
2023-04-10T12:07:49.613Z,17.32
2023-04-10T12:10:16.896Z,17.50
2023-04-10T12:12:46.525Z,16.89
2023-04-10T12:15:27.173Z,17.22
2023-04-10T12:17:56.598Z,16.96
2023-04-10T12:20:23.834Z,17.38
2023-04-10T12:22:51.103Z,16.57
2023-04-10T12:25:21.472Z,16.65
2023-04-10T12:27:50.165Z,17.91
2023-04-10T12:30:17.406Z,18.07
2023-04-10T12:32:52.196Z,18.16
2023-04-10T12:35:21.157Z,18.86
2023-04-10T12:37:49.722Z,18.42
2023-04-10T12:40:17.416Z,18.11
2023-04-10T12:42:46.034Z,18.80
2023-04-10T12:45:13.924Z,18.65
2023-04-10T12:47:46.510Z,18.01
2023-04-10T12:50:16.133Z,16.95
2023-04-10T12:52:47.182Z,17.38
2023-04-10T12:55:16.046Z,18.23
2023-04-10T12:57:45.360Z,18.22
2023-04-10T13:00:16.725Z,17.91
2023-04-10T13:02:44.618Z,17.48
2023-04-10T13:05:12.507Z,17.27
2023-04-10T13:07:41.283Z,17.49
2023-04-10T13:10:11.450Z,19.04
2023-04-10T13:12:39.346Z,18.73
2023-04-10T13:15:08.048Z,18.67
2023-04-10T13:17:36.001Z,18.88
2023-04-10T13:20:04.881Z,18.85
2023-04-10T13:22:32.734Z,18.57
2023-04-10T13:24:59.924Z,19.09
2023-04-10T13:27:28.591Z,19.89
2023-04-10T13:29:56.747Z,20.02
2023-04-10T13:32:24.351Z,20.24
2023-04-10T13:34:51.810Z,19.06
2023-04-10T13:37:19.217Z,18.72
2023-04-10T13:39:47.012Z,18.07
2023-04-10T13:42:15.319Z,18.97
2023-04-10T13:44:44.190Z,18.54
2023-04-10T13:47:11.629Z,18.49
2023-04-10T13:49:39.869Z,19.20
2023-04-10T13:52:06.990Z,18.98
2023-04-10T13:54:34.277Z,18.23
2023-04-10T13:57:02.049Z,19.56
2023-04-10T13:59:29.511Z,18.95
2023-04-10T14:01:58.137Z,18.76
2023-04-10T14:04:25.852Z,18.26
2023-04-10T14:06:53.786Z,18.13
2023-04-10T14:09:21.294Z,18.47
2023-04-10T14:11:49.253Z,18.95
2023-04-10T14:14:16.995Z,19.59
2023-04-10T14:16:44.221Z,18.55
2023-04-10T14:19:13.770Z,18.46
2023-04-10T14:21:41.203Z,17.87
2023-04-10T14:24:08.544Z,17.44
2023-04-10T14:26:36.226Z,17.34
2023-04-10T14:29:03.687Z,16.61
2023-04-10T14:31:30.936Z,16.00
2023-04-10T14:33:58.318Z,16.30
2023-04-10T14:36:28.468Z,16.54
2023-04-10T14:38:55.856Z,17.01
2023-04-10T14:41:23.104Z,17.11
2023-04-10T14:43:50.112Z,17.23
2023-04-10T14:46:18.032Z,16.55
2023-04-10T14:48:45.686Z,16.29
2023-04-10T14:51:13.076Z,16.38
2023-04-10T14:53:41.638Z,16.29
2023-04-10T14:56:13.219Z,16.00
2023-04-10T14:58:40.605Z,16.05
2023-04-10T15:01:09.850Z,16.00
2023-04-10T15:03:37.168Z,16.14
2023-04-10T15:06:07.684Z,16.39
2023-04-10T15:08:35.316Z,16.52
2023-04-10T15:11:05.176Z,15.58
2023-04-10T15:13:32.957Z,14.08
2023-04-10T15:16:00.652Z,14.34
2023-04-10T15:18:28.065Z,13.98
2023-04-10T15:20:55.517Z,13.14
2023-04-10T15:23:22.880Z,13.61
2023-04-10T15:25:51.510Z,13.75
2023-04-10T15:28:20.613Z,14.25
2023-04-10T15:30:48.334Z,14.40
2023-04-10T15:33:15.756Z,14.25
2023-04-10T15:35:48.191Z,14.21
2023-04-10T15:38:16.792Z,14.36
2023-04-10T15:40:44.457Z,14.33
2023-04-10T15:43:13.507Z,14.12
2023-04-10T15:45:42.810Z,14.51
2023-04-10T15:48:10.242Z,14.81
2023-04-10T15:50:37.761Z,15.24
2023-04-10T15:53:05.192Z,15.14
2023-04-10T15:55:32.921Z,15.71
2023-04-10T15:58:02.247Z,16.03
2023-04-10T16:00:29.442Z,16.28
2023-04-10T16:02:58.967Z,16.58
2023-04-10T16:05:27.505Z,16.55
2023-04-10T16:07:55.663Z,16.41
2023-04-10T16:10:23.534Z,15.96
2023-04-10T16:12:51.178Z,16.35
2023-04-10T16:15:19.405Z,16.64
2023-04-10T16:17:49.624Z,16.82
2023-04-10T16:20:20.141Z,16.75
2023-04-10T16:22:47.431Z,16.16
2023-04-10T16:25:14.935Z,16.44
2023-04-10T16:27:42.538Z,16.32
2023-04-10T16:30:11.624Z,16.49
2023-04-10T16:32:38.751Z,16.24
2023-04-10T16:35:07.665Z,16.75
2023-04-10T16:37:36.856Z,16.76
2023-04-10T16:40:06.287Z,16.70
2023-04-10T16:42:33.615Z,16.51
2023-04-10T16:45:01.067Z,17.49
2023-04-10T16:47:29.016Z,16.81
2023-04-10T16:49:56.429Z,17.08
2023-04-10T16:52:23.980Z,16.20
2023-04-10T16:54:53.102Z,16.76
2023-04-10T16:57:21.252Z,16.97
2023-04-10T16:59:57.250Z,16.90
2023-04-10T17:02:25.022Z,16.77
2023-04-10T17:04:54.937Z,16.37
2023-04-10T17:07:22.508Z,16.04
2023-04-10T17:09:49.921Z,16.11
2023-04-10T17:12:18.513Z,16.21
2023-04-10T17:14:46.319Z,16.34
2023-04-10T17:17:14.282Z,16.75
2023-04-10T17:19:41.101Z,16.21
2023-04-10T17:22:08.464Z,16.07
2023-04-10T17:24:35.838Z,16.14
2023-04-10T17:27:03.262Z,16.11
2023-04-10T17:29:36.216Z,16.22
2023-04-10T17:32:03.857Z,16.04
2023-04-10T17:34:31.184Z,15.78
2023-04-10T17:36:59.175Z,15.19
2023-04-10T17:39:27.052Z,15.35
2023-04-10T17:41:54.307Z,15.51
2023-04-10T17:44:21.934Z,15.53
2023-04-10T17:46:51.142Z,15.40
2023-04-10T17:49:18.547Z,15.19
2023-04-10T17:51:46.282Z,15.13
2023-04-10T17:54:15.104Z,15.09
2023-04-10T17:56:42.787Z,14.98
2023-04-10T17:59:10.964Z,15.00
2023-04-10T18:01:39.111Z,14.66
2023-04-10T18:04:07.823Z,15.35
2023-04-10T18:06:35.437Z,15.44
2023-04-10T18:09:02.616Z,15.35
2023-04-10T18:11:30.309Z,15.67
2023-04-10T18:13:57.796Z,15.76
2023-04-10T18:16:25.334Z,16.01
2023-04-10T18:18:52.901Z,15.95
2023-04-10T18:21:21.602Z,15.86
2023-04-10T18:23:49.398Z,15.85
2023-04-10T18:26:16.552Z,16.01
2023-04-10T18:28:44.147Z,15.51
2023-04-10T18:31:11.546Z,15.58
2023-04-10T18:33:40.352Z,15.81
2023-04-10T18:36:08.685Z,15.64
2023-04-10T18:38:37.656Z,14.91
2023-04-10T18:41:06.559Z,15.08
2023-04-10T18:43:34.894Z,15.03
2023-04-10T18:46:02.187Z,14.98
2023-04-10T18:48:29.014Z,15.53
2023-04-10T18:50:56.143Z,15.53
2023-04-10T18:53:23.851Z,15.51
2023-04-10T18:55:53.637Z,14.79
2023-04-10T18:58:21.722Z,14.59
2023-04-10T19:00:48.685Z,14.92
2023-04-10T19:03:16.441Z,14.93
2023-04-10T19:05:43.812Z,14.21
2023-04-10T19:08:11.765Z,15.09
2023-04-10T19:10:39.191Z,14.81
2023-04-10T19:13:09.639Z,14.76
2023-04-10T19:15:39.420Z,14.73
2023-04-10T19:18:07.011Z,15.04
2023-04-10T19:20:49.878Z,15.03
2023-04-10T19:23:18.952Z,15.02
2023-04-10T19:25:46.253Z,14.97
2023-04-10T19:28:15.894Z,15.22
2023-04-10T19:30:43.444Z,15.27
2023-04-10T19:33:13.796Z,15.10
2023-04-10T19:35:41.075Z,15.18
2023-04-10T19:38:08.604Z,15.20
2023-04-10T19:40:36.068Z,15.15
2023-04-10T19:43:03.308Z,14.85
2023-04-10T19:45:32.598Z,15.04
2023-04-10T19:48:00.138Z,14.90
2023-04-10T19:50:29.053Z,14.83
2023-04-10T19:52:55.818Z,14.39
2023-04-10T19:55:23.188Z,13.94
2023-04-10T19:57:51.033Z,13.57
2023-04-10T20:00:19.448Z,13.40
2023-04-10T20:02:48.856Z,12.94
2023-04-10T20:05:16.478Z,13.40
2023-04-10T20:07:44.186Z,13.79
2023-04-10T20:10:11.520Z,13.91
2023-04-10T20:12:38.936Z,13.91
2023-04-10T20:15:07.585Z,13.86
2023-04-10T20:17:35.056Z,14.00
2023-04-10T20:20:03.432Z,13.53
2023-04-10T20:22:30.993Z,14.18
2023-04-10T20:24:57.907Z,14.11
2023-04-10T20:27:24.767Z,13.74
2023-04-10T20:29:52.129Z,13.18
2023-04-10T20:32:18.852Z,14.00
2023-04-10T20:34:46.474Z,14.08
2023-04-10T20:37:16.292Z,13.42
2023-04-10T20:39:44.291Z,13.90
2023-04-10T20:42:12.134Z,13.68
2023-04-10T20:44:39.669Z,14.10
2023-04-10T20:47:07.162Z,13.73
2023-04-10T20:49:34.484Z,14.04
2023-04-10T20:52:01.800Z,14.13
2023-04-10T20:54:30.600Z,14.33
2023-04-10T20:56:58.664Z,14.61
2023-04-10T20:59:25.699Z,14.57
2023-04-10T21:01:52.718Z,14.31
2023-04-10T21:04:20.923Z,13.70
2023-04-10T21:06:48.136Z,14.22
2023-04-10T21:09:15.503Z,13.97
2023-04-10T21:11:44.882Z,14.25
2023-04-10T21:14:13.484Z,14.13
2023-04-10T21:16:40.733Z,13.96
2023-04-10T21:19:08.576Z,13.85
2023-04-10T21:21:36.154Z,13.67
2023-04-10T21:24:03.651Z,13.46
2023-04-10T21:26:31.292Z,13.93
2023-04-10T21:29:00.756Z,13.60
2023-04-10T21:31:27.892Z,13.13
2023-04-10T21:33:54.955Z,13.24
2023-04-10T21:36:22.223Z,13.56
2023-04-10T21:38:49.475Z,13.62
2023-04-10T21:41:16.142Z,13.31
2023-04-10T21:43:45.441Z,13.05
2023-04-10T21:46:14.167Z,13.54
2023-04-10T21:48:41.936Z,13.47
2023-04-10T21:51:10.464Z,13.20
2023-04-10T21:53:37.880Z,13.42
2023-04-10T21:56:05.849Z,13.27
2023-04-10T21:58:33.127Z,13.19
2023-04-10T22:01:01.721Z,13.01
2023-04-10T22:03:31.345Z,12.91
2023-04-10T22:05:59.005Z,13.16
2023-04-10T22:08:26.296Z,13.00
2023-04-10T22:10:54.512Z,13.27
2023-04-10T22:13:30.272Z,13.35
2023-04-10T22:15:59.428Z,13.50
2023-04-10T22:18:27.218Z,13.82
2023-04-10T22:20:56.352Z,13.65
2023-04-10T22:23:25.468Z,13.58
2023-04-10T22:25:53.647Z,13.72
2023-04-10T22:28:20.427Z,13.70
2023-04-10T22:30:47.977Z,13.59
2023-04-10T22:33:14.757Z,13.63
2023-04-10T22:35:42.127Z,13.54
2023-04-10T22:38:11.141Z,13.39
2023-04-10T22:40:38.284Z,13.59
2023-04-10T22:43:05.520Z,13.41
2023-04-10T22:45:32.950Z,13.17
2023-04-10T22:48:00.441Z,13.14
2023-04-10T22:50:28.064Z,12.99
2023-04-10T22:52:54.948Z,13.19
2023-04-10T22:55:24.309Z,13.35
2023-04-10T22:57:51.445Z,13.32
2023-04-10T23:00:19.118Z,13.28
2023-04-10T23:02:46.556Z,13.35
2023-04-10T23:05:14.129Z,13.28
2023-04-10T23:07:41.827Z,13.32
2023-04-10T23:10:09.832Z,13.34
2023-04-10T23:12:38.870Z,13.39
2023-04-10T23:15:08.848Z,13.40
2023-04-10T23:17:36.566Z,13.43
2023-04-10T23:20:03.546Z,13.33
2023-04-10T23:22:30.958Z,13.47
2023-04-10T23:24:58.076Z,13.51
2023-04-10T23:27:25.529Z,13.53
2023-04-10T23:29:54.277Z,13.52
2023-04-10T23:32:22.662Z,13.61
2023-04-10T23:34:49.785Z,13.52
2023-04-10T23:37:18.729Z,13.51
2023-04-10T23:39:47.822Z,13.44
2023-04-10T23:42:15.841Z,13.43
2023-04-10T23:44:42.998Z,13.39
2023-04-10T23:47:11.652Z,13.27
2023-04-10T23:49:39.030Z,13.15
2023-04-10T23:52:06.183Z,13.08
2023-04-10T23:54:33.670Z,12.95
2023-04-10T23:57:00.933Z,12.96
2023-04-10T23:59:28.096Z,12.95
